sensor_id;sensor_type;location;lat;lon;timestamp;pressure;altitude;pressure_sealevel;temperature;humidity
48244;BME280;34053;51.088;6.572;2023-02-23T00:01:46;100666.13;;;11.05;76.76
48244;BME280;34053;51.088;6.572;2023-02-23T00:04:17;100665.41;;;10.99;76.97
48244;BME280;34053;51.088;6.572;2023-02-23T00:06:50;100664.50;;;11.00;77.09
48244;BME280;34053;51.088;6.572;2023-02-23T00:09:21;100671.38;;;11.05;77.06
48244;BME280;34053;51.088;6.572;2023-02-23T00:11:55;100660.09;;;11.01;77.15
48244;BME280;34053;51.088;6.572;2023-02-23T00:14:27;100660.78;;;11.08;76.75
48244;BME280;34053;51.088;6.572;2023-02-23T00:16:58;100662.66;;;11.04;76.88
48244;BME280;34053;51.088;6.572;2023-02-23T00:19:29;100664.31;;;11.07;76.71
48244;BME280;34053;51.088;6.572;2023-02-23T00:22:02;100657.53;;;10.99;76.77
48244;BME280;34053;51.088;6.572;2023-02-23T00:24:32;100663.56;;;11.03;76.88
48244;BME280;34053;51.088;6.572;2023-02-23T00:27:05;100652.09;;;11.06;76.63
48244;BME280;34053;51.088;6.572;2023-02-23T00:29:36;100653.88;;;11.05;76.61
48244;BME280;34053;51.088;6.572;2023-02-23T00:32:09;100658.25;;;11.05;76.51
48244;BME280;34053;51.088;6.572;2023-02-23T00:34:39;100655.75;;;11.01;77.11
48244;BME280;34053;51.088;6.572;2023-02-23T00:37:10;100656.63;;;11.00;76.49
48244;BME280;34053;51.088;6.572;2023-02-23T00:39:41;100652.22;;;11.01;76.64
48244;BME280;34053;51.088;6.572;2023-02-23T00:42:12;100649.66;;;10.99;76.66
48244;BME280;34053;51.088;6.572;2023-02-23T00:44:42;100653.31;;;10.94;77.39
48244;BME280;34053;51.088;6.572;2023-02-23T00:47:13;100649.81;;;10.95;76.98
48244;BME280;34053;51.088;6.572;2023-02-23T00:49:43;100650.56;;;10.98;76.94
48244;BME280;34053;51.088;6.572;2023-02-23T00:52:14;100657.53;;;10.99;76.62
48244;BME280;34053;51.088;6.572;2023-02-23T00:54:44;100654.97;;;10.98;77.04
48244;BME280;34053;51.088;6.572;2023-02-23T00:57:15;100653.28;;;10.95;76.98
48244;BME280;34053;51.088;6.572;2023-02-23T00:59:45;100647.19;;;10.95;77.19
48244;BME280;34053;51.088;6.572;2023-02-23T01:02:16;100654.28;;;10.91;77.43
48244;BME280;34053;51.088;6.572;2023-02-23T01:04:46;100655.19;;;10.90;77.24
48244;BME280;34053;51.088;6.572;2023-02-23T01:07:16;100658.56;;;10.94;76.77
48244;BME280;34053;51.088;6.572;2023-02-23T01:09:47;100656.97;;;10.90;77.17
48244;BME280;34053;51.088;6.572;2023-02-23T01:12:17;100656.84;;;10.94;77.12
48244;BME280;34053;51.088;6.572;2023-02-23T01:14:48;100651.59;;;10.93;77.36
48244;BME280;34053;51.088;6.572;2023-02-23T01:17:18;100648.94;;;10.94;76.77
48244;BME280;34053;51.088;6.572;2023-02-23T01:19:49;100651.72;;;10.88;77.06
48244;BME280;34053;51.088;6.572;2023-02-23T01:22:19;100651.72;;;10.88;77.43
48244;BME280;34053;51.088;6.572;2023-02-23T01:24:50;100656.22;;;10.84;77.56
48244;BME280;34053;51.088;6.572;2023-02-23T01:27:23;100658.06;;;10.82;77.59
48244;BME280;34053;51.088;6.572;2023-02-23T01:29:54;100651.66;;;10.91;77.98
48244;BME280;34053;51.088;6.572;2023-02-23T01:32:25;100653.59;;;10.84;78.04
48244;BME280;34053;51.088;6.572;2023-02-23T01:34:56;100660.63;;;10.84;77.61
48244;BME280;34053;51.088;6.572;2023-02-23T01:37:26;100655.25;;;10.87;77.51
48244;BME280;34053;51.088;6.572;2023-02-23T01:39:56;100649.03;;;10.91;77.16
48244;BME280;34053;51.088;6.572;2023-02-23T01:42:27;100652.63;;;10.87;77.62
48244;BME280;34053;51.088;6.572;2023-02-23T01:45:34;100653.50;;;10.88;77.28
48244;BME280;34053;51.088;6.572;2023-02-23T01:48:11;100654.47;;;10.85;77.58
48244;BME280;34053;51.088;6.572;2023-02-23T01:53:42;100651.09;;;10.80;78.21
48244;BME280;34053;51.088;6.572;2023-02-23T01:56:18;100651.03;;;10.83;77.64
48244;BME280;34053;51.088;6.572;2023-02-23T01:58:51;100647.56;;;10.81;77.53
48244;BME280;34053;51.088;6.572;2023-02-23T02:01:24;100649.31;;;10.82;77.27
48244;BME280;34053;51.088;6.572;2023-02-23T02:04:00;100645.06;;;10.78;78.12
48244;BME280;34053;51.088;6.572;2023-02-23T02:06:33;100643.19;;;10.81;77.57
48244;BME280;34053;51.088;6.572;2023-02-23T02:09:07;100645.06;;;10.78;77.64
48244;BME280;34053;51.088;6.572;2023-02-23T02:11:39;100645.97;;;10.77;78.17
48244;BME280;34053;51.088;6.572;2023-02-23T02:14:39;100648.53;;;10.78;77.78
48244;BME280;34053;51.088;6.572;2023-02-23T02:23:30;100650.13;;;10.84;77.95
48244;BME280;34053;51.088;6.572;2023-02-23T02:26:15;100654.47;;;10.85;77.68
48244;BME280;34053;51.088;6.572;2023-02-23T02:41:09;100645.28;;;10.70;78.10
48244;BME280;34053;51.088;6.572;2023-02-23T02:43:53;100650.44;;;10.73;78.37
48244;BME280;34053;51.088;6.572;2023-02-23T02:46:28;100639.84;;;10.76;77.70
48244;BME280;34053;51.088;6.572;2023-02-23T02:49:24;100643.41;;;10.74;78.00
48244;BME280;34053;51.088;6.572;2023-02-23T02:52:12;100646.94;;;10.73;78.21
48244;BME280;34053;51.088;6.572;2023-02-23T02:54:52;100638.09;;;10.77;77.90
48244;BME280;34053;51.088;6.572;2023-02-23T02:57:27;100635.47;;;10.77;77.62
48244;BME280;34053;51.088;6.572;2023-02-23T02:59:58;100649.56;;;10.73;78.13
48244;BME280;34053;51.088;6.572;2023-02-23T03:02:47;100640.88;;;10.70;78.39
48244;BME280;34053;51.088;6.572;2023-02-23T03:05:44;100633.88;;;10.71;77.98
48244;BME280;34053;51.088;6.572;2023-02-23T03:08:49;100639.06;;;10.73;78.09
48244;BME280;34053;51.088;6.572;2023-02-23T03:11:58;100638.25;;;10.70;77.48
48244;BME280;34053;51.088;6.572;2023-02-23T03:15:10;100642.59;;;10.71;77.85
48244;BME280;34053;51.088;6.572;2023-02-23T03:22:13;100643.72;;;10.63;78.19
48244;BME280;34053;51.088;6.572;2023-02-23T03:25:28;100639.44;;;10.60;78.20
48244;BME280;34053;51.088;6.572;2023-02-23T03:28:24;100642.72;;;10.67;77.97
48244;BME280;34053;51.088;6.572;2023-02-23T03:31:31;100642.06;;;10.60;78.13
48244;BME280;34053;51.088;6.572;2023-02-23T03:34:32;100640.22;;;10.62;78.10
48244;BME280;34053;51.088;6.572;2023-02-23T03:37:33;100641.22;;;10.58;78.13
48244;BME280;34053;51.088;6.572;2023-02-23T03:40:28;100643.03;;;10.56;78.35
48244;BME280;34053;51.088;6.572;2023-02-23T03:43:32;100650.06;;;10.54;78.41
48244;BME280;34053;51.088;6.572;2023-02-23T03:46:24;100655.31;;;10.54;78.49
48244;BME280;34053;51.088;6.572;2023-02-23T03:49:16;100658.09;;;10.49;78.64
48244;BME280;34053;51.088;6.572;2023-02-23T03:52:16;100660.56;;;10.55;78.16
48244;BME280;34053;51.088;6.572;2023-02-23T03:55:13;100662.47;;;10.49;78.81
48244;BME280;34053;51.088;6.572;2023-02-23T03:58:07;100659.03;;;10.47;78.73
48244;BME280;34053;51.088;6.572;2023-02-23T04:01:01;100658.13;;;10.48;79.08
48244;BME280;34053;51.088;6.572;2023-02-23T04:03:53;100659.13;;;10.44;78.71
48244;BME280;34053;51.088;6.572;2023-02-23T04:06:45;100661.66;;;10.47;78.54
48244;BME280;34053;51.088;6.572;2023-02-23T04:09:35;100663.38;;;10.48;78.87
48244;BME280;34053;51.088;6.572;2023-02-23T04:12:38;100661.78;;;10.42;78.64
48244;BME280;34053;51.088;6.572;2023-02-23T04:15:59;100667.00;;;10.44;78.69
48244;BME280;34053;51.088;6.572;2023-02-23T04:18:35;100664.28;;;10.47;78.40
48244;BME280;34053;51.088;6.572;2023-02-23T04:21:07;100666.09;;;10.45;78.53
48244;BME280;34053;51.088;6.572;2023-02-23T04:23:38;100667.13;;;10.39;79.02
48244;BME280;34053;51.088;6.572;2023-02-23T04:26:10;100668.78;;;10.42;78.73
48244;BME280;34053;51.088;6.572;2023-02-23T04:28:40;100671.41;;;10.42;78.46
48244;BME280;34053;51.088;6.572;2023-02-23T04:31:10;100667.06;;;10.41;78.89
48244;BME280;34053;51.088;6.572;2023-02-23T04:33:41;100668.94;;;10.35;79.03
48244;BME280;34053;51.088;6.572;2023-02-23T04:36:11;100665.41;;;10.36;79.25
48244;BME280;34053;51.088;6.572;2023-02-23T04:38:42;100668.09;;;10.33;78.95
48244;BME280;34053;51.088;6.572;2023-02-23T04:41:12;100672.38;;;10.39;78.40
48244;BME280;34053;51.088;6.572;2023-02-23T04:43:42;100665.41;;;10.36;78.82
48244;BME280;34053;51.088;6.572;2023-02-23T04:46:13;100673.16;;;10.43;78.47
48244;BME280;34053;51.088;6.572;2023-02-23T04:48:43;100670.59;;;10.39;78.31
48244;BME280;34053;51.088;6.572;2023-02-23T04:51:14;100675.09;;;10.34;78.64
48244;BME280;34053;51.088;6.572;2023-02-23T04:53:44;100676.72;;;10.40;78.23
48244;BME280;34053;51.088;6.572;2023-02-23T04:56:15;100666.25;;;10.38;78.45
48244;BME280;34053;51.088;6.572;2023-02-23T04:58:45;100667.22;;;10.34;78.95
48244;BME280;34053;51.088;6.572;2023-02-23T05:01:16;100671.63;;;10.32;78.68
48244;BME280;34053;51.088;6.572;2023-02-23T05:03:47;100670.81;;;10.30;78.78
48244;BME280;34053;51.088;6.572;2023-02-23T05:06:18;100674.19;;;10.35;78.64
48244;BME280;34053;51.088;6.572;2023-02-23T05:08:50;100676.03;;;10.30;79.21
48244;BME280;34053;51.088;6.572;2023-02-23T05:11:20;100676.03;;;10.30;79.00
48244;BME280;34053;51.088;6.572;2023-02-23T05:13:50;100680.41;;;10.31;78.70
48244;BME280;34053;51.088;6.572;2023-02-23T05:16:21;100690.00;;;10.32;79.31
48244;BME280;34053;51.088;6.572;2023-02-23T05:18:52;100684.59;;;10.38;78.95
48244;BME280;34053;51.088;6.572;2023-02-23T05:21:23;100685.56;;;10.34;78.97
48244;BME280;34053;51.088;6.572;2023-02-23T05:23:54;100683.00;;;10.33;78.73
48244;BME280;34053;51.088;6.572;2023-02-23T05:26:25;100683.84;;;10.33;78.54
48244;BME280;34053;51.088;6.572;2023-02-23T05:28:56;100689.91;;;10.35;78.44
48244;BME280;34053;51.088;6.572;2023-02-23T05:31:27;100681.34;;;10.29;78.40
48244;BME280;34053;51.088;6.572;2023-02-23T05:33:57;100691.84;;;10.29;78.22
48244;BME280;34053;51.088;6.572;2023-02-23T05:36:28;100688.19;;;10.34;79.33
48244;BME280;34053;51.088;6.572;2023-02-23T05:38:58;100694.34;;;10.33;79.32
48244;BME280;34053;51.088;6.572;2023-02-23T05:41:29;100689.25;;;10.27;79.02
48244;BME280;34053;51.088;6.572;2023-02-23T05:44:00;100692.78;;;10.26;79.10
48244;BME280;34053;51.088;6.572;2023-02-23T05:46:30;100690.28;;;10.21;78.92
48244;BME280;34053;51.088;6.572;2023-02-23T05:49:01;100692.84;;;10.23;78.89
48244;BME280;34053;51.088;6.572;2023-02-23T05:51:33;100695.44;;;10.24;79.16
48244;BME280;34053;51.088;6.572;2023-02-23T05:54:04;100700.66;;;10.26;78.95
48244;BME280;34053;51.088;6.572;2023-02-23T05:56:34;100699.78;;;10.26;78.86
48244;BME280;34053;51.088;6.572;2023-02-23T05:59:05;100700.72;;;10.23;78.96
48244;BME280;34053;51.088;6.572;2023-02-23T06:01:36;100698.09;;;10.23;78.94
48244;BME280;34053;51.088;6.572;2023-02-23T06:04:06;100701.63;;;10.22;78.83
48244;BME280;34053;51.088;6.572;2023-02-23T06:06:37;100705.13;;;10.22;79.39
48244;BME280;34053;51.088;6.572;2023-02-23T06:09:07;100700.94;;;10.14;79.04
48244;BME280;34053;51.088;6.572;2023-02-23T06:11:37;100695.69;;;10.15;79.78
48244;BME280;34053;51.088;6.572;2023-02-23T06:14:08;100699.22;;;10.14;79.28
48244;BME280;34053;51.088;6.572;2023-02-23T06:16:38;100699.22;;;10.14;79.38
48244;BME280;34053;51.088;6.572;2023-02-23T06:19:09;100702.66;;;10.16;79.12
48244;BME280;34053;51.088;6.572;2023-02-23T06:21:40;100703.50;;;10.17;79.06
48244;BME280;34053;51.088;6.572;2023-02-23T06:24:11;100712.19;;;10.19;79.58
48244;BME280;34053;51.088;6.572;2023-02-23T06:26:41;100706.13;;;10.17;78.95
48244;BME280;34053;51.088;6.572;2023-02-23T06:29:12;100707.09;;;10.13;79.85
48244;BME280;34053;51.088;6.572;2023-02-23T06:31:43;100716.72;;;10.12;79.52
48244;BME280;34053;51.088;6.572;2023-02-23T06:34:14;100714.16;;;10.11;79.78
48244;BME280;34053;51.088;6.572;2023-02-23T06:36:44;100722.03;;;10.11;79.66
48244;BME280;34053;51.088;6.572;2023-02-23T06:39:15;100721.19;;;10.08;79.36
48244;BME280;34053;51.088;6.572;2023-02-23T06:41:45;100722.09;;;10.07;79.48
48244;BME280;34053;51.088;6.572;2023-02-23T06:44:15;100726.44;;;10.08;79.69
48244;BME280;34053;51.088;6.572;2023-02-23T06:46:46;100726.50;;;10.05;80.06
48244;BME280;34053;51.088;6.572;2023-02-23T06:49:16;100728.16;;;10.10;79.33
48244;BME280;34053;51.088;6.572;2023-02-23T06:51:47;100735.41;;;10.00;80.61
48244;BME280;34053;51.088;6.572;2023-02-23T06:54:17;100735.56;;;9.92;82.20
48244;BME280;34053;51.088;6.572;2023-02-23T06:56:48;100739.16;;;9.88;81.57
48244;BME280;34053;51.088;6.572;2023-02-23T06:59:19;100744.03;;;10.03;80.15
48244;BME280;34053;51.088;6.572;2023-02-23T07:01:49;100743.28;;;9.98;80.49
48244;BME280;34053;51.088;6.572;2023-02-23T07:04:20;100746.66;;;10.03;80.27
48244;BME280;34053;51.088;6.572;2023-02-23T07:06:51;100748.38;;;10.04;79.69
48244;BME280;34053;51.088;6.572;2023-02-23T07:09:21;100754.56;;;10.02;80.45
48244;BME280;34053;51.088;6.572;2023-02-23T07:11:52;100757.97;;;10.05;80.00
48244;BME280;34053;51.088;6.572;2023-02-23T07:14:22;100753.84;;;9.95;80.42
48244;BME280;34053;51.088;6.572;2023-02-23T07:16:53;100762.50;;;9.99;80.14
48244;BME280;34053;51.088;6.572;2023-02-23T07:19:24;100764.13;;;10.03;80.52
48244;BME280;34053;51.088;6.572;2023-02-23T07:21:54;100764.94;;;10.06;80.32
48244;BME280;34053;51.088;6.572;2023-02-23T07:24:25;100769.38;;;10.03;80.11
48244;BME280;34053;51.088;6.572;2023-02-23T07:26:57;100769.38;;;10.03;80.29
48244;BME280;34053;51.088;6.572;2023-02-23T07:29:28;100775.41;;;10.06;80.48
48244;BME280;34053;51.088;6.572;2023-02-23T07:31:58;100779.81;;;10.06;80.34
48244;BME280;34053;51.088;6.572;2023-02-23T07:34:29;100783.22;;;10.10;80.54
48244;BME280;34053;51.088;6.572;2023-02-23T07:36:59;100782.38;;;10.07;80.03
48244;BME280;34053;51.088;6.572;2023-02-23T07:39:30;100787.63;;;10.07;80.10
48244;BME280;34053;51.088;6.572;2023-02-23T07:42:00;100786.00;;;10.03;80.85
48244;BME280;34053;51.088;6.572;2023-02-23T07:44:31;100787.56;;;10.11;80.36
48244;BME280;34053;51.088;6.572;2023-02-23T07:47:01;100786.78;;;10.05;80.98
48244;BME280;34053;51.088;6.572;2023-02-23T07:49:32;100783.38;;;10.02;80.92
48244;BME280;34053;51.088;6.572;2023-02-23T07:52:03;100789.63;;;9.98;81.00
48244;BME280;34053;51.088;6.572;2023-02-23T07:54:33;100792.03;;;10.05;80.19
48244;BME280;34053;51.088;6.572;2023-02-23T07:57:04;100793.81;;;10.05;80.54
48244;BME280;34053;51.088;6.572;2023-02-23T07:59:34;100802.50;;;10.07;80.64
48244;BME280;34053;51.088;6.572;2023-02-23T08:02:06;100790.25;;;10.07;80.20
48244;BME280;34053;51.088;6.572;2023-02-23T08:04:36;100793.75;;;10.08;80.83
48244;BME280;34053;51.088;6.572;2023-02-23T08:07:07;100796.22;;;10.13;80.50
48244;BME280;34053;51.088;6.572;2023-02-23T08:09:38;100804.16;;;10.11;80.15
48244;BME280;34053;51.088;6.572;2023-02-23T08:12:08;100809.47;;;10.08;80.40
48244;BME280;34053;51.088;6.572;2023-02-23T08:14:39;100805.13;;;10.05;80.95
48244;BME280;34053;51.088;6.572;2023-02-23T08:17:10;100805.81;;;10.14;80.89
48244;BME280;34053;51.088;6.572;2023-02-23T08:19:41;100808.53;;;10.11;81.08
48244;BME280;34053;51.088;6.572;2023-02-23T08:22:11;100811.38;;;10.01;81.83
48244;BME280;34053;51.088;6.572;2023-02-23T08:24:41;100812.13;;;10.06;81.48
48244;BME280;34053;51.088;6.572;2023-02-23T08:27:12;100821.59;;;10.12;81.31
48244;BME280;34053;51.088;6.572;2023-02-23T08:29:43;100819.88;;;10.11;81.89
48244;BME280;34053;51.088;6.572;2023-02-23T08:32:13;100823.47;;;10.07;81.20
48244;BME280;34053;51.088;6.572;2023-02-23T08:34:44;100826.88;;;10.11;82.10
48244;BME280;34053;51.088;6.572;2023-02-23T08:37:14;100831.53;;;9.58;84.97
48244;BME280;34053;51.088;6.572;2023-02-23T08:39:45;100834.31;;;9.91;82.72
48244;BME280;34053;51.088;6.572;2023-02-23T08:42:15;100829.25;;;9.84;82.40
48244;BME280;34053;51.088;6.572;2023-02-23T08:44:47;100834.38;;;9.88;82.21
48244;BME280;34053;51.088;6.572;2023-02-23T08:47:20;100843.31;;;9.37;83.86
48244;BME280;34053;51.088;6.572;2023-02-23T08:49:53;100840.09;;;9.67;83.00
48244;BME280;34053;51.088;6.572;2023-02-23T08:52:23;100834.69;;;9.74;82.78
48244;BME280;34053;51.088;6.572;2023-02-23T08:54:54;100835.44;;;9.80;82.21
48244;BME280;34053;51.088;6.572;2023-02-23T08:57:25;100835.38;;;9.83;81.40
48244;BME280;34053;51.088;6.572;2023-02-23T08:59:56;100842.34;;;9.84;81.50
48244;BME280;34053;51.088;6.572;2023-02-23T09:02:27;100836.47;;;9.72;82.41
48244;BME280;34053;51.088;6.572;2023-02-23T09:04:58;100838.97;;;9.79;81.71
48244;BME280;34053;51.088;6.572;2023-02-23T09:07:28;100838.97;;;9.79;81.84
48244;BME280;34053;51.088;6.572;2023-02-23T09:10:01;100845.50;;;9.59;82.69
48244;BME280;34053;51.088;6.572;2023-02-23T09:12:31;100845.00;;;9.82;81.64
48244;BME280;34053;51.088;6.572;2023-02-23T09:15:05;100853.91;;;9.75;82.02
48244;BME280;34053;51.088;6.572;2023-02-23T09:17:36;100849.38;;;9.82;81.40
48244;BME280;34053;51.088;6.572;2023-02-23T09:20:07;100856.38;;;9.81;81.47
48244;BME280;34053;51.088;6.572;2023-02-23T09:22:50;100852.81;;;9.84;81.45
48244;BME280;34053;51.088;6.572;2023-02-23T09:25:21;100857.75;;;9.57;82.75
48244;BME280;34053;51.088;6.572;2023-02-23T09:27:53;100862.16;;;9.55;82.63
48244;BME280;34053;51.088;6.572;2023-02-23T09:30:29;100866.16;;;9.71;81.91
48244;BME280;34053;51.088;6.572;2023-02-23T09:32:59;100865.47;;;9.63;83.13
48244;BME280;34053;51.088;6.572;2023-02-23T09:35:31;100869.56;;;9.76;82.05
48244;BME280;34053;51.088;6.572;2023-02-23T09:38:03;100874.72;;;9.80;82.58
48244;BME280;34053;51.088;6.572;2023-02-23T09:40:49;100873.84;;;9.81;81.71
48244;BME280;34053;51.088;6.572;2023-02-23T09:46:10;100875.16;;;9.59;82.87
48244;BME280;34053;51.088;6.572;2023-02-23T09:48:43;100875.84;;;9.68;82.55
48244;BME280;34053;51.088;6.572;2023-02-23T09:51:16;100873.78;;;9.84;81.90
48244;BME280;34053;51.088;6.572;2023-02-23T09:53:52;100890.41;;;9.83;81.96
48244;BME280;34053;51.088;6.572;2023-02-23T09:56:36;100884.59;;;9.68;82.30
48244;BME280;34053;51.088;6.572;2023-02-23T09:59:25;100889.06;;;9.63;82.45
48244;BME280;34053;51.088;6.572;2023-02-23T10:02:18;100893.34;;;9.67;82.43
48244;BME280;34053;51.088;6.572;2023-02-23T10:04:56;100897.31;;;9.44;83.25
48244;BME280;34053;51.088;6.572;2023-02-23T10:07:54;100898.63;;;9.66;82.34
48244;BME280;34053;51.088;6.572;2023-02-23T10:10:46;100899.88;;;9.46;83.47
48244;BME280;34053;51.088;6.572;2023-02-23T10:16:20;100900.69;;;9.50;83.54
48244;BME280;34053;51.088;6.572;2023-02-23T10:19:23;100895.00;;;9.71;81.97
48244;BME280;34053;51.088;6.572;2023-02-23T10:22:00;100903.22;;;9.54;82.83
48244;BME280;34053;51.088;6.572;2023-02-23T10:24:47;100906.59;;;9.59;82.88
48244;BME280;34053;51.088;6.572;2023-02-23T10:27:23;100915.72;;;9.38;82.84
48244;BME280;34053;51.088;6.572;2023-02-23T10:29:56;100918.81;;;9.60;82.20
48244;BME280;34053;51.088;6.572;2023-02-23T10:32:37;100918.75;;;9.64;81.92
48244;BME280;34053;51.088;6.572;2023-02-23T10:35:12;100914.91;;;9.36;83.04
48244;BME280;34053;51.088;6.572;2023-02-23T10:37:42;100916.81;;;9.28;83.91
48244;BME280;34053;51.088;6.572;2023-02-23T10:40:15;100922.97;;;9.24;84.07
48244;BME280;34053;51.088;6.572;2023-02-23T10:42:46;100925.91;;;9.05;84.54
48244;BME280;34053;51.088;6.572;2023-02-23T10:45:19;100928.81;;;9.38;83.03
48244;BME280;34053;51.088;6.572;2023-02-23T10:47:57;100935.16;;;9.28;83.63
48244;BME280;34053;51.088;6.572;2023-02-23T10:50:27;100931.75;;;9.21;84.25
48244;BME280;34053;51.088;6.572;2023-02-23T10:53:10;100923.06;;;9.21;84.35
48244;BME280;34053;51.088;6.572;2023-02-23T10:55:46;100921.09;;;9.34;83.77
48244;BME280;34053;51.088;6.572;2023-02-23T10:58:29;100931.63;;;9.29;83.65
48244;BME280;34053;51.088;6.572;2023-02-23T11:01:02;100931.81;;;9.20;84.63
48244;BME280;34053;51.088;6.572;2023-02-23T11:06:25;100928.38;;;9.14;84.57
48244;BME280;34053;51.088;6.572;2023-02-23T11:08:56;100929.53;;;8.98;86.57
48244;BME280;34053;51.088;6.572;2023-02-23T11:11:27;100931.22;;;9.02;86.27
48244;BME280;34053;51.088;6.572;2023-02-23T11:13:58;100931.50;;;8.85;86.15
48244;BME280;34053;51.088;6.572;2023-02-23T11:16:37;100938.09;;;9.09;85.49
48244;BME280;34053;51.088;6.572;2023-02-23T11:19:20;100936.19;;;9.18;84.96
48244;BME280;34053;51.088;6.572;2023-02-23T11:21:52;100936.19;;;9.18;85.11
48244;BME280;34053;51.088;6.572;2023-02-23T11:24:33;100928.25;;;9.22;84.60
48244;BME280;34053;51.088;6.572;2023-02-23T11:27:06;100922.09;;;9.25;84.40
48244;BME280;34053;51.088;6.572;2023-02-23T11:29:48;100920.44;;;9.21;84.29
48244;BME280;34053;51.088;6.572;2023-02-23T11:32:22;100916.81;;;9.28;83.74
48244;BME280;34053;51.088;6.572;2023-02-23T11:37:48;100920.38;;;9.24;84.16
48244;BME280;34053;51.088;6.572;2023-02-23T11:40:31;100918.69;;;9.21;84.04
48244;BME280;34053;51.088;6.572;2023-02-23T11:45:49;100923.22;;;9.11;83.22
48244;BME280;34053;51.088;6.572;2023-02-23T11:50:54;100916.19;;;9.15;82.81
48244;BME280;34053;51.088;6.572;2023-02-23T11:53:38;100917.31;;;9.00;83.32
48244;BME280;34053;51.088;6.572;2023-02-23T11:56:18;100922.06;;;9.26;83.19
48244;BME280;34053;51.088;6.572;2023-02-23T11:58:52;100911.66;;;9.22;83.39
48244;BME280;34053;51.088;6.572;2023-02-23T12:01:40;100915.13;;;9.25;83.04
48244;BME280;34053;51.088;6.572;2023-02-23T12:04:33;100919.72;;;9.11;83.23
48244;BME280;34053;51.088;6.572;2023-02-23T12:07:30;100914.00;;;8.90;84.42
48244;BME280;34053;51.088;6.572;2023-02-23T12:10:26;100916.34;;;9.06;84.15
48244;BME280;34053;51.088;6.572;2023-02-23T12:13:23;100918.81;;;9.13;83.89
48244;BME280;34053;51.088;6.572;2023-02-23T12:18:57;100917.91;;;9.16;83.71
48244;BME280;34053;51.088;6.572;2023-02-23T12:25:02;100906.03;;;8.96;83.27
48244;BME280;34053;51.088;6.572;2023-02-23T12:27:41;100916.19;;;9.13;82.90
48244;BME280;34053;51.088;6.572;2023-02-23T12:30:30;100916.09;;;9.18;82.27
48244;BME280;34053;51.088;6.572;2023-02-23T12:36:08;100915.41;;;9.08;81.94
48244;BME280;34053;51.088;6.572;2023-02-23T12:38:51;100920.88;;;8.96;83.49
48244;BME280;34053;51.088;6.572;2023-02-23T12:41:32;100925.06;;;9.05;82.75
48244;BME280;34053;51.088;6.572;2023-02-23T12:44:32;100924.72;;;9.25;82.01
48244;BME280;34053;51.088;6.572;2023-02-23T12:47:26;100921.25;;;9.23;81.98
48244;BME280;34053;51.088;6.572;2023-02-23T12:50:04;100922.06;;;9.28;81.64
48244;BME280;34053;51.088;6.572;2023-02-23T12:52:50;100923.59;;;9.38;80.42
48244;BME280;34053;51.088;6.572;2023-02-23T12:58:39;100911.56;;;9.28;80.72
48244;BME280;34053;51.088;6.572;2023-02-23T13:01:27;100916.44;;;9.00;80.69
48244;BME280;34053;51.088;6.572;2023-02-23T13:09:47;100911.34;;;9.40;79.56
48244;BME280;34053;51.088;6.572;2023-02-23T13:12:39;100909.59;;;9.39;80.10
48244;BME280;34053;51.088;6.572;2023-02-23T13:20:54;100918.38;;;9.37;79.54
48244;BME280;34053;51.088;6.572;2023-02-23T13:26:44;100907.53;;;9.57;79.44
48244;BME280;34053;51.088;6.572;2023-02-23T13:29:32;100908.44;;;9.54;80.26
48244;BME280;34053;51.088;6.572;2023-02-23T13:32:10;100900.56;;;9.56;79.81
48244;BME280;34053;51.088;6.572;2023-02-23T13:34:48;100903.88;;;9.64;81.21
48244;BME280;34053;51.088;6.572;2023-02-23T13:37:26;100907.34;;;9.66;80.39
48244;BME280;34053;51.088;6.572;2023-02-23T13:47:56;100907.47;;;10.01;79.36
48244;BME280;34053;51.088;6.572;2023-02-23T13:50:55;100911.13;;;9.93;77.71
48244;BME280;34053;51.088;6.572;2023-02-23T13:56:40;100906.78;;;9.92;77.22
48244;BME280;34053;51.088;6.572;2023-02-23T13:59:18;100908.47;;;9.97;77.31
48244;BME280;34053;51.088;6.572;2023-02-23T14:01:50;100911.56;;;9.73;77.38
48244;BME280;34053;51.088;6.572;2023-02-23T14:04:27;100911.28;;;9.87;78.02
48244;BME280;34053;51.088;6.572;2023-02-23T14:09:37;100919.41;;;9.73;76.86
48244;BME280;34053;51.088;6.572;2023-02-23T14:14:44;100927.94;;;9.85;75.99
48244;BME280;34053;51.088;6.572;2023-02-23T14:20:05;100930.16;;;9.61;77.63
48244;BME280;34053;51.088;6.572;2023-02-23T14:26:07;100919.50;;;9.70;76.69
48244;BME280;34053;51.088;6.572;2023-02-23T14:28:41;100920.59;;;9.58;75.79
48244;BME280;34053;51.088;6.572;2023-02-23T14:41:38;100918.81;;;9.60;76.20
48244;BME280;34053;51.088;6.572;2023-02-23T14:44:15;100925.00;;;9.55;76.79
48244;BME280;34053;51.088;6.572;2023-02-23T14:46:55;100916.88;;;9.70;76.44
48244;BME280;34053;51.088;6.572;2023-02-23T14:49:29;100924.84;;;9.64;77.26
48244;BME280;34053;51.088;6.572;2023-02-23T14:52:12;100928.25;;;9.69;77.18
48244;BME280;34053;51.088;6.572;2023-02-23T14:54:49;100925.53;;;9.74;77.34
48244;BME280;34053;51.088;6.572;2023-02-23T14:57:21;100925.63;;;9.68;77.46
48244;BME280;34053;51.088;6.572;2023-02-23T15:02:25;100930.78;;;9.74;77.54
48244;BME280;34053;51.088;6.572;2023-02-23T15:04:56;100933.22;;;9.82;77.58
48244;BME280;34053;51.088;6.572;2023-02-23T15:07:39;100934.91;;;9.86;77.38
48244;BME280;34053;51.088;6.572;2023-02-23T15:12:54;100946.97;;;9.93;77.28
48244;BME280;34053;51.088;6.572;2023-02-23T15:15:25;100950.63;;;9.86;77.38
48244;BME280;34053;51.088;6.572;2023-02-23T15:18:01;100945.56;;;9.76;77.15
48244;BME280;34053;51.088;6.572;2023-02-23T15:20:33;100942.09;;;9.74;77.86
48244;BME280;34053;51.088;6.572;2023-02-23T15:23:04;100945.56;;;9.76;77.45
48244;BME280;34053;51.088;6.572;2023-02-23T15:25:39;100953.38;;;9.78;77.36
48244;BME280;34053;51.088;6.572;2023-02-23T15:28:26;100945.78;;;9.64;77.14
48244;BME280;34053;51.088;6.572;2023-02-23T15:31:00;100948.25;;;9.73;77.18